Rochester, MN (55906)

9:45 PM CST on February 20, 2017 (GMT -0600)
Quarry Hill Nature Center | | Change Station

Elev 1020 ft 44.03 °N, 92.43 °W | Updated 19 seconds ago

Overcast
Overcast
50.1 °F
Feels Like 50.1 °F
N
4.0
Wind Variable Wind from West
Gusts 9.0 mph

Today
High -- | Low -- °F
--% Chance of Precip.
Yesterday
High -- | Low -- °F
Precip. -- in
Pressure 29.78 in
Visibility 10.0 miles
Clouds Overcast 1000 ft
Dew Point 49 °F
Humidity 95%
Rainfall 0.68 in
Snow Depth Not available.
7:00 AM 5:46 PM
Waning Crescent, 29% visible
METAR K9MN 210333Z AUTO 26018G29KT 10SM OVC010 10/10 A2978 RMK AO1 T01000100
Pressure 29.78 in
Visibility 10.0 miles
Clouds Overcast 1000 ft
Dew Point 49 °F
Humidity 95%
Rainfall 0.68 in
Snow Depth Not available.
7:00 AM 5:46 PM
Waning Crescent, 29% visible
METAR K9MN 210333Z AUTO 26018G29KT 10SM OVC010 10/10 A2978 RMK AO1 T01000100

Get Your Daily Forecast Email!

Thanks for signing up!

Be on the lookout for a verification email in your inbox.

You'll start receiving the daily forecast at 8 AM.

×

10-Day Weather Forecast

Almanac

Astronomy

Feb. 20, 2017 Rise Set
Actual Time
Civil Twilight
Nautical Twilight
Astronomical Twilight
Moon
Length of Visible Light
Length of Day
Tomorrow will be .
, % of the Moon is Illuminated

Today's Extremes

State Highs State Lows

Community

WunderPhotos

Upload Photos

1,962,540 photos uploaded!

WunderBlog® & News

Nearby

Air Quality

  Air Quality AQ Index Pollutant
Not available.

Snow Depth

Station Depth Elevation

Earthquake Activity

City Distance Mag. Time & Date
Minimum magnitude displayed is 2.5.

Coastal Water Temperatures

Place Temperature

Stations

Nearby Weather Stations

Station Location Temp. Windchill Dew Point Humidity Wind Precip. Elev Updated Type
                   

Watches & Warnings

There are currently no watches in effect.